Rechercher aéroport 
image banner adimage banner ad
image banner ad

SVCG - Carbones Del Guasare

Situé à Zulia, Venezuela

ICAO - SVCG, IATA - CUV

Données fournies par Airmate  

Information générale

Coordonnées: N11°0'29" W72°16'26"
Élévation : 99 feet MSL.
 
Voir autres Aéroports à Zulia

Données opérationnelles

Accessible au public
Heure actuelle UTC:
Heure actuelle locale:
Météo à : SVMC - Maracaibo / La Chinita Intl ( 78 km )
METAR: SVMC 310502Z AUTO 02003KT NCD 27/24 Q1010
TAF: TAF SVMC 302200Z 3100/0100 08010KT 9999 SCT013 TX34/3119Z TN23/3108Z BECMG 3100/3104 10002KT 9000 -DZ BKN016
Voir NOTAMs / SUP AIP / TFR affectant cet aéroport [VIEW]
Fréquences de communication: [VIEW]

Pistes:

Identifiant RWYQFULongueur (ft)Largeur (ft)SurfaceLDA (ft)
1093°345070ASP
28273°345070ASP

Coordonnées de l'aéroport

Adresse: Zulia Venezuela

Vue satellite de SVCG